岡山グライダークラブ活動状況掲示板

岡山グライダークラブ
岡山市浦安南町639-1 岡南飛行場
 使用機:シャイベ式 SF25C型 ファルケ   JA2330
      ヴァレンティン式17E型 タイフーン  JA2342
 練習日:毎日曜日  クラブルーム:電話 086-265-1810
この掲示板は岡山グライダークラブの活動状況をお知らせする掲示板です。
!!!この掲示板は投稿規制をしています。!!!
クラブ関連各種情報は 岡山グライダークラブクラブルーム      を       .
  ブリーフイング情報は  岡山グライダークラブブリーフィングルーム  をご覧下さい。 .
※写真はクリックすると拡大して見ることが出来ます。
岡南飛行場へのアクセス等は 岡南飛行場管理事務所 をご覧ください。
クラブの ホームページ ができました。

!!!お待たせしました。新型コロナ感染症の感染が下火になったことから見学者等の受入を再開します。!!!
  注)なお、見学等の際には一般的な感染対策(マスク、ソーシャルディスタンス、黙食等)を順守してください。

 
12月18日
by OGC at 2022/12/18(日) 23:29:40 No.20221218232801  削除コメント
640 x 480 x 77,446バイト
No.1

12月18日
本日の参加者
  会員      16名
  その他     00名


@本日の様子






METAR
RJBK 180000Z 25007KT 30KM FEW020CU 02/M04 Q1017 A3005
RJOB 180000Z 29006KT 250V350 9999 FEW015 SCT025 M01/M05 Q1015
RJOT 180000Z 30011KT 9999 VCSH FEW025 SCT030 BKN080 01/M04 Q1016
RJOA 180000Z 30013KT 9999 -SHSN FEW010 SCT020 M02/M05 Q1016
TAF
RJOB 172305Z 1800/1906 28010KT 9999 FEW020 BKN040
RJOT 172305Z 1800/1906 28014KT 9999 FEW015 BKN045
     TEMPO 1800/1806 28016G26KT
RJOA 172305Z 1800/1906 30012KT 9000 -SHSN FEW010 SCT020 BKN040
     TEMPO 1800/1806 4000 -SHSN


本日の天候は晴れですが、今季で一番の寒い一日で、風も26KTのガスト
が出ることもありました。訓練生は風の合間にTGLやリッジを使って飛び
まわっていました。

解散    17:00

1番機  11:05離陸 撤収機  16:20着陸 

SF25C JA2330 ファルケ     08Flt.2h00min  
17E   JA2342 タイフーン    00Flt.0h00min
合計                    08Flt.2h00min

    << 戻る || ホームページ || 最新の掲示板へ